Time;durP1;ratioP1;P1;durP2;ratioP2;P2;SDS_P1;SDS_P2;PMS_P1;PMS_P2;Temp;Humidity;BMP_temperature;BMP_pressure;BME280_temperature;BME280_humidity;BME280_pressure;Samples;Min_cycle;Max_cycle;Signal;HPM_P1;HPM_P2
2020/12/05 00:02:18;;;;;;;34.65;18.87;;;;;;;4.54;79.05;99624.47;1680957;83;25853;-80
2020/12/05 00:04:46;;;;;;;30.02;20.35;;;;;;;4.60;79.04;99625.98;1661504;84;25352;-80
2020/12/05 00:07:14;;;;;;;33.60;20.80;;;;;;;4.65;78.94;99616.50;1671403;84;25485;-79
2020/12/05 00:09:41;;;;;;;31.68;19.80;;;;;;;4.70;78.85;99612.20;1658658;84;25726;-80
2020/12/05 00:12:10;;;;;;;33.08;20.92;;;;;;;4.73;78.73;99615.30;1675554;84;25862;-80
2020/12/05 00:14:36;;;;;;;30.72;20.25;;;;;;;4.74;78.63;99619.50;1681612;83;26416;-80
2020/12/05 00:17:03;;;;;;;30.32;20.70;;;;;;;4.76;78.55;99613.70;1658755;84;25878;-79
2020/12/05 00:19:31;;;;;;;32.60;19.23;;;;;;;4.77;78.60;99619.70;1658881;84;25726;-80
2020/12/05 00:21:58;;;;;;;31.70;19.50;;;;;;;4.77;78.56;99625.68;1681590;82;25840;-80
2020/12/05 00:24:25;;;;;;;30.80;19.07;;;;;;;4.78;78.40;99626.52;1696314;82;25887;-80
2020/12/05 00:26:54;;;;;;;27.62;18.98;;;;;;;4.79;78.35;99625.55;1711628;82;25771;-79
2020/12/05 00:29:21;;;;;;;27.90;18.85;;;;;;;4.81;78.37;99615.38;1724700;82;25748;-79
2020/12/05 00:31:52;;;;;;;30.37;18.15;;;;;;;4.85;78.31;99625.77;1701694;82;25998;-79
2020/12/05 00:34:20;;;;;;;36.20;19.15;;;;;;;4.88;78.23;99624.20;1699607;83;25933;-80
2020/12/05 00:36:46;;;;;;;30.25;19.55;;;;;;;4.89;78.06;99627.12;1703720;83;26345;-79
2020/12/05 00:39:13;;;;;;;28.30;18.67;;;;;;;4.90;78.04;99630.03;1706431;82;26577;-79
2020/12/05 00:41:40;;;;;;;32.53;19.62;;;;;;;4.90;77.94;99633.91;1690283;83;26459;-79
2020/12/05 00:44:07;;;;;;;28.65;19.50;;;;;;;4.90;77.99;99640.88;1703892;82;25811;-79
2020/12/05 00:46:33;;;;;;;28.62;18.15;;;;;;;4.91;78.01;99647.70;1702656;82;25973;-79
2020/12/05 00:49:01;;;;;;;28.73;17.35;;;;;;;4.88;77.94;99641.03;1699222;83;25922;-78
2020/12/05 00:51:27;;;;;;;29.60;18.62;;;;;;;4.89;77.96;99634.08;1701679;82;25784;-79
2020/12/05 00:53:54;;;;;;;28.02;17.17;;;;;;;4.89;77.83;99634.08;1685648;83;25794;-79
2020/12/05 00:56:21;;;;;;;24.40;15.83;;;;;;;4.89;77.85;99640.55;1696680;83;25328;-78
2020/12/05 00:58:48;;;;;;;26.65;16.60;;;;;;;4.90;77.81;99639.09;1699327;83;25877;-79
2020/12/05 01:01:16;;;;;;;29.23;18.27;;;;;;;4.94;77.76;99639.63;1706122;82;25811;-78
2020/12/05 01:03:43;;;;;;;27.17;16.77;;;;;;;4.95;77.79;99625.72;1665134;84;25766;-79
2020/12/05 01:06:16;;;;;;;26.45;17.37;;;;;;;4.99;77.66;99630.95;1650391;84;26442;-79
2020/12/05 01:08:44;;;;;;;29.05;18.42;;;;;;;5.02;77.65;99629.81;1670965;84;25696;-78
2020/12/05 01:11:19;;;;;;;29.82;20.30;;;;;;;5.01;77.52;99632.08;1672337;83;26513;-78
2020/12/05 01:13:47;;;;;;;27.73;17.73;;;;;;;5.00;77.63;99633.05;1667798;83;25755;-79
2020/12/05 01:16:18;;;;;;;27.77;18.73;;;;;;;4.98;77.55;99632.38;1669775;83;25871;-79
2020/12/05 01:18:45;;;;;;;28.30;18.05;;;;;;;4.96;77.51;99638.98;1673768;83;25844;-79
2020/12/05 01:21:16;;;;;;;27.07;17.65;;;;;;;4.94;77.45;99645.27;1677209;84;25823;-79
2020/12/05 01:23:43;;;;;;;26.68;17.45;;;;;;;4.93;77.59;99635.88;1675949;83;25621;-79
2020/12/05 01:26:09;;;;;;;28.83;18.35;;;;;;;4.95;77.56;99633.97;1688091;83;25762;-79
2020/12/05 01:28:36;;;;;;;29.72;18.95;;;;;;;4.96;77.48;99646.75;1686067;83;26404;-79
2020/12/05 01:31:04;;;;;;;28.05;19.12;;;;;;;4.95;77.42;99648.21;1686987;83;25770;-79
2020/12/05 01:33:31;;;;;;;30.75;19.52;;;;;;;4.94;77.42;99658.22;1691973;83;25788;-79
2020/12/05 01:36:00;;;;;;;26.93;18.07;;;;;;;4.92;77.53;99660.16;1690770;83;25847;-79
2020/12/05 01:38:26;;;;;;;28.25;19.40;;;;;;;4.90;77.46;99664.98;1646466;84;25998;-79
2020/12/05 01:40:58;;;;;;;26.15;17.75;;;;;;;4.88;77.55;99669.97;1664494;84;25796;-80
2020/12/05 01:43:27;;;;;;;31.40;18.85;;;;;;;4.88;77.51;99669.97;1706026;82;26437;-79
2020/12/05 01:45:53;;;;;;;25.40;17.07;;;;;;;4.83;77.47;99669.13;1709115;83;25547;-79
2020/12/05 01:48:21;;;;;;;24.32;17.02;;;;;;;4.83;77.52;99658.78;1708238;82;25756;-79
2020/12/05 01:50:49;;;;;;;28.70;18.50;;;;;;;4.84;77.51;99655.22;1688931;82;25871;-79
2020/12/05 01:53:16;;;;;;;31.10;18.15;;;;;;;4.85;77.54;99656.83;1709106;83;25815;-79
2020/12/05 01:55:54;;;;;;;28.52;18.75;;;;;;;4.87;77.55;99655.41;1709686;82;25935;-79
2020/12/05 01:58:21;;;;;;;26.60;17.40;;;;;;;4.87;77.55;99656.22;1709832;82;25816;-79
2020/12/05 02:00:47;;;;;;;26.20;17.73;;;;;;;4.85;77.55;99657.32;1711149;82;26300;-79
2020/12/05 02:03:15;;;;;;;27.20;17.50;;;;;;;4.83;77.46;99650.20;1707807;82;25757;-79
2020/12/05 02:05:56;;;;;;;27.20;16.90;;;;;;;4.80;77.56;99650.47;1708686;82;26491;-79
2020/12/05 02:08:33;;;;;;;22.27;15.83;;;;;;;4.79;77.59;99639.30;1698367;83;25741;-79
2020/12/05 02:11:02;;;;;;;23.27;16.05;;;;;;;4.79;77.62;99635.42;1705043;82;25872;-79
2020/12/05 02:13:37;;;;;;;26.48;18.05;;;;;;;4.79;77.59;99644.97;1709143;82;26268;-78
2020/12/05 02:16:05;;;;;;;21.90;15.35;;;;;;;4.79;77.59;99648.36;1709835;82;25773;-78
2020/12/05 02:18:33;;;;;;;25.82;17.48;;;;;;;4.80;77.61;99646.12;1708528;82;26305;-78
2020/12/05 02:21:03;;;;;;;29.72;18.17;;;;;;;4.79;77.60;99650.14;1710863;82;25528;-79
2020/12/05 02:23:30;;;;;;;25.85;17.60;;;;;;;4.78;77.64;99647.23;1710814;83;25715;-78
2020/12/05 02:26:09;;;;;;;26.82;16.85;;;;;;;4.77;77.72;99649.47;1724607;82;26619;-79
2020/12/05 02:28:35;;;;;;;26.77;16.82;;;;;;;4.77;77.80;99645.09;1720048;82;25814;-79
2020/12/05 02:31:03;;;;;;;27.42;16.50;;;;;;;4.75;77.76;99639.27;1676994;82;26377;-79
2020/12/05 02:33:29;;;;;;;26.25;16.20;;;;;;;4.74;77.78;99639.41;1710417;82;25824;-79
2020/12/05 02:35:57;;;;;;;27.98;16.93;;;;;;;4.75;77.85;99633.28;1716120;82;25743;-78
2020/12/05 02:38:45;;;;;;;26.52;16.05;;;;;;;4.76;77.83;99631.02;1712877;83;26449;-79
2020/12/05 02:41:11;;;;;;;22.45;15.40;;;;;;;4.78;77.83;99631.70;1710209;83;25827;-80
2020/12/05 02:43:39;;;;;;;26.20;16.42;;;;;;;4.81;77.85;99637.88;1711603;82;25836;-79
2020/12/05 02:46:05;;;;;;;22.87;15.80;;;;;;;4.83;77.79;99650.20;1710420;82;25791;-79
2020/12/05 02:48:31;;;;;;;25.17;16.95;;;;;;;4.81;77.83;99647.75;1709519;82;25749;-79
2020/12/05 02:50:58;;;;;;;26.73;16.57;;;;;;;4.83;77.89;99649.72;1706542;83;26820;-79
2020/12/05 02:53:24;;;;;;;26.37;17.55;;;;;;;4.84;77.85;99649.23;1712533;83;25878;-79
2020/12/05 02:55:50;;;;;;;28.73;16.70;;;;;;;4.83;77.87;99652.30;1710788;82;25804;-79
2020/12/05 02:58:17;;;;;;;23.83;16.50;;;;;;;4.82;77.90;99657.13;1708022;82;26220;-79
2020/12/05 03:00:43;;;;;;;19.73;14.10;;;;;;;4.80;77.90;99652.60;1715546;82;25832;-79
2020/12/05 03:03:10;;;;;;;22.02;15.13;;;;;;;4.81;77.92;99651.63;1718919;82;25771;-78
2020/12/05 03:05:36;;;;;;;23.10;14.63;;;;;;;4.84;77.94;99658.30;1716961;82;25719;-79
2020/12/05 03:08:02;;;;;;;22.00;15.65;;;;;;;4.86;77.91;99665.44;1711681;82;25702;-80
2020/12/05 03:10:29;;;;;;;22.58;15.15;;;;;;;4.88;77.89;99664.34;1707329;82;25779;-80
2020/12/05 03:12:55;;;;;;;26.42;16.57;;;;;;;4.92;77.93;99660.16;1719675;82;25801;-79
2020/12/05 03:15:22;;;;;;;23.12;14.53;;;;;;;4.95;77.93;99660.67;1724243;82;25781;-80
2020/12/05 03:17:48;;;;;;;22.82;15.95;;;;;;;4.95;77.91;99663.75;1711184;82;26693;-80
2020/12/05 03:20:14;;;;;;;22.20;15.40;;;;;;;4.96;77.92;99657.59;1708922;83;25815;-79
2020/12/05 03:22:41;;;;;;;25.57;16.62;;;;;;;4.97;77.92;99668.31;1702749;82;25748;-80
2020/12/05 03:25:07;;;;;;;21.27;13.62;;;;;;;4.96;77.90;99673.13;1700426;82;26577;-80
2020/12/05 03:27:33;;;;;;;25.57;15.72;;;;;;;4.95;77.90;99667.14;1683412;82;25832;-80
2020/12/05 03:30:00;;;;;;;20.92;14.23;;;;;;;4.97;77.91;99674.78;1691766;83;25826;-80
2020/12/05 03:32:30;;;;;;;23.98;15.23;;;;;;;5.00;77.90;99670.60;1680159;82;25805;-80
2020/12/05 03:34:55;;;;;;;20.80;14.58;;;;;;;5.03;77.89;99663.83;1686465;83;25821;-79
2020/12/05 03:37:24;;;;;;;24.47;15.32;;;;;;;5.07;77.85;99659.97;1685035;82;25871;-79
2020/12/05 03:39:49;;;;;;;24.23;15.58;;;;;;;5.09;77.80;99659.35;1680798;83;25736;-78
2020/12/05 03:42:15;;;;;;;21.90;15.40;;;;;;;5.08;77.73;99655.95;1684469;82;25786;-80
2020/12/05 03:44:42;;;;;;;23.95;16.00;;;;;;;5.09;77.71;99658.06;1679408;83;25650;-79
2020/12/05 03:47:08;;;;;;;26.05;16.77;;;;;;;5.08;77.62;99657.73;1683453;82;26039;-80
2020/12/05 03:49:34;;;;;;;24.30;15.70;;;;;;;5.07;77.72;99656.09;1683431;82;26434;-79
2020/12/05 03:52:02;;;;;;;24.07;14.18;;;;;;;5.05;77.75;99654.95;1683081;82;25830;-79
2020/12/05 03:54:29;;;;;;;22.70;14.87;;;;;;;5.05;77.70;99659.33;1684203;82;25793;-79
2020/12/05 03:56:56;;;;;;;21.15;13.62;;;;;;;5.06;77.74;99661.75;1679758;83;25814;-79
2020/12/05 03:59:24;;;;;;;20.15;13.78;;;;;;;5.09;77.80;99663.23;1684840;82;25804;-79
2020/12/05 04:01:50;;;;;;;20.82;14.43;;;;;;;5.10;77.70;99660.52;1689662;82;25992;-79
2020/12/05 04:04:17;;;;;;;23.27;14.75;;;;;;;5.15;77.70;99656.66;1685593;83;25808;-80
2020/12/05 04:06:43;;;;;;;23.98;15.30;;;;;;;5.17;77.68;99665.91;1683135;82;25807;-79
2020/12/05 04:09:09;;;;;;;24.95;15.48;;;;;;;5.17;77.60;99677.56;1676138;83;25781;-79
2020/12/05 04:11:38;;;;;;;19.77;14.43;;;;;;;5.18;77.64;99677.89;1683688;83;25746;-79
2020/12/05 04:14:10;;;;;;;22.62;14.80;;;;;;;5.20;77.62;99678.56;1694782;82;26356;-80
2020/12/05 04:16:37;;;;;;;22.75;15.20;;;;;;;5.20;77.59;99679.05;1680415;83;25739;-80
2020/12/05 04:19:05;;;;;;;20.65;14.07;;;;;;;5.19;77.61;99678.24;1693589;82;25426;-80
2020/12/05 04:21:32;;;;;;;22.10;13.50;;;;;;;5.19;77.58;99676.94;1683246;83;25896;-79
2020/12/05 04:23:59;;;;;;;21.50;14.20;;;;;;;5.19;77.54;99675.65;1706410;82;25722;-80
2020/12/05 04:26:26;;;;;;;21.00;13.10;;;;;;;5.20;77.55;99672.09;1704509;82;25743;-79
2020/12/05 04:28:52;;;;;;;23.42;15.72;;;;;;;5.22;77.53;99686.20;1706671;81;26329;-79
2020/12/05 04:31:18;;;;;;;24.37;14.75;;;;;;;5.25;77.43;99688.49;1702720;82;25899;-79
2020/12/05 04:33:45;;;;;;;20.80;14.10;;;;;;;5.25;77.44;99682.83;1705673;82;25814;-79
2020/12/05 04:36:11;;;;;;;23.90;15.40;;;;;;;5.22;77.41;99687.50;1714649;82;25901;-79
2020/12/05 04:38:38;;;;;;;24.55;16.50;;;;;;;5.21;77.46;99687.98;1727237;82;25684;-80
2020/12/05 04:41:04;;;;;;;21.02;14.80;;;;;;;5.19;77.49;99697.67;1714831;82;26443;-79
2020/12/05 04:43:33;;;;;;;20.97;14.93;;;;;;;5.18;77.51;99700.39;1704251;82;26343;-79
2020/12/05 04:46:01;;;;;;;23.07;15.32;;;;;;;5.15;77.52;99703.28;1706299;82;25818;-79
2020/12/05 04:48:31;;;;;;;21.97;14.87;;;;;;;5.15;77.53;99701.98;1702112;81;25851;-79
2020/12/05 04:51:03;;;;;;;19.70;13.88;;;;;;;5.14;77.55;99710.23;1706237;82;26444;-79
2020/12/05 04:53:31;;;;;;;20.20;14.78;;;;;;;5.16;77.58;99707.03;1696994;82;25819;-79
2020/12/05 04:55:59;;;;;;;22.50;15.10;;;;;;;5.17;77.58;99702.66;1707249;81;25896;-79
2020/12/05 04:58:26;;;;;;;23.87;16.20;;;;;;;5.18;77.54;99712.05;1708285;82;25811;-79
2020/12/05 05:00:55;;;;;;;22.52;15.55;;;;;;;5.17;77.55;99718.20;1705993;82;26157;-79
2020/12/05 05:03:24;;;;;;;23.90;15.37;;;;;;;5.15;77.55;99712.34;1701558;82;25817;-80
2020/12/05 05:05:57;;;;;;;23.83;16.25;;;;;;;5.14;77.63;99713.31;1700919;82;25867;-80
2020/12/05 05:08:25;;;;;;;21.15;14.23;;;;;;;5.12;77.67;99711.67;1710773;81;25875;-80
2020/12/05 05:11:11;;;;;;;23.57;15.32;;;;;;;5.11;77.60;99712.64;1704607;82;25339;-80
2020/12/05 05:14:05;;;;;;;24.57;14.03;;;;;;;5.10;77.63;99712.77;1707374;82;25801;-80
2020/12/05 05:16:30;;;;;;;19.62;14.18;;;;;;;5.10;77.67;99708.44;1710667;82;25773;-80
2020/12/05 05:19:01;;;;;;;21.68;14.28;;;;;;;5.11;77.65;99703.58;1706957;82;26493;-80
2020/12/05 05:21:38;;;;;;;20.70;14.65;;;;;;;5.12;77.63;99712.16;1706052;81;25347;-79
2020/12/05 05:24:16;;;;;;;25.02;14.38;;;;;;;5.11;77.60;99723.48;1699993;82;25768;-80
2020/12/05 05:26:44;;;;;;;23.92;15.93;;;;;;;5.10;77.65;99717.50;1690136;83;25648;-79
2020/12/05 05:29:27;;;;;;;21.60;14.68;;;;;;;5.09;77.60;99715.84;1663716;84;25898;-80
2020/12/05 05:32:05;;;;;;;22.37;15.35;;;;;;;5.05;77.63;99710.64;1691103;83;25912;-79
2020/12/05 05:34:23;;;;;;;23.32;15.10;;;;;;;5.02;77.74;99724.34;1689043;83;25727;-79
2020/12/05 05:36:50;;;;;;;22.00;14.85;;;;;;;4.99;77.83;99725.92;1693514;83;25895;-80
2020/12/05 05:39:18;;;;;;;22.93;14.98;;;;;;;4.97;77.88;99726.09;1687987;83;25864;-80
2020/12/05 05:41:51;;;;;;;26.57;16.82;;;;;;;4.98;77.95;99734.18;1696297;83;25664;-79
2020/12/05 05:44:27;;;;;;;21.97;14.65;;;;;;;4.99;77.91;99722.04;1688047;83;26349;-79
2020/12/05 05:46:54;;;;;;;25.02;15.65;;;;;;;4.99;77.91;99727.22;1689333;83;25798;-79
2020/12/05 05:49:31;;;;;;;21.33;14.47;;;;;;;5.01;77.94;99724.02;1687942;83;26399;-79
2020/12/05 05:52:02;;;;;;;21.80;14.95;;;;;;;5.02;77.93;99735.53;1691019;83;26430;-80
2020/12/05 05:54:35;;;;;;;22.13;15.30;;;;;;;5.04;77.91;99737.97;1693260;83;26479;-79
2020/12/05 05:57:11;;;;;;;23.07;15.95;;;;;;;5.04;77.93;99738.77;1691196;83;25826;-79
2020/12/05 05:59:40;;;;;;;22.90;14.98;;;;;;;5.04;77.93;99745.25;1689759;83;25219;-79
2020/12/05 06:02:13;;;;;;;20.97;15.13;;;;;;;5.06;78.00;99743.34;1693223;82;26021;-79
2020/12/05 06:04:46;;;;;;;23.00;15.15;;;;;;;5.08;78.02;99753.08;1698121;82;25812;-79
2020/12/05 06:07:23;;;;;;;21.97;14.80;;;;;;;5.09;78.09;99753.89;1700652;82;25771;-79
2020/12/05 06:09:53;;;;;;;20.32;13.83;;;;;;;5.12;78.09;99762.17;1689736;83;26325;-79
2020/12/05 06:12:27;;;;;;;27.13;14.13;;;;;;;5.14;78.03;99758.64;1713927;81;25643;-78
2020/12/05 06:14:55;;;;;;;20.12;14.05;;;;;;;5.14;77.95;99762.53;1691705;82;25694;-79
2020/12/05 06:17:23;;;;;;;22.60;14.65;;;;;;;5.16;77.90;99758.03;1689018;82;25700;-79
2020/12/05 06:19:52;;;;;;;21.40;15.78;;;;;;;5.15;77.87;99763.66;1689514;83;25783;-79
2020/12/05 06:22:48;;;;;;;22.95;15.23;;;;;;;5.17;77.87;99759.65;1690336;83;25736;-79
2020/12/05 06:25:16;;;;;;;23.80;16.23;;;;;;;5.15;77.72;99758.48;1682740;82;25960;-79
2020/12/05 06:28:04;;;;;;;23.12;14.95;;;;;;;5.12;77.80;99754.89;1640752;85;26286;-79
2020/12/05 06:30:31;;;;;;;23.02;16.17;;;;;;;5.11;77.81;99758.45;1648495;84;25821;-79
2020/12/05 06:32:58;;;;;;;22.98;16.23;;;;;;;5.09;77.82;99767.65;1649544;84;26150;-79
2020/12/05 06:35:32;;;;;;;23.32;16.20;;;;;;;5.06;77.78;99767.94;1638892;84;26349;-78
2020/12/05 06:37:59;;;;;;;22.93;15.85;;;;;;;5.02;77.84;99770.50;1670151;84;26259;-79
2020/12/05 06:40:25;;;;;;;25.00;15.15;;;;;;;5.01;77.83;99771.44;1652790;84;25898;-79
2020/12/05 06:42:56;;;;;;;22.30;15.08;;;;;;;4.99;77.86;99779.86;1646283;85;26257;-79
2020/12/05 06:45:34;;;;;;;19.98;13.88;;;;;;;4.98;77.88;99776.09;1641942;84;25940;-79
2020/12/05 06:48:14;;;;;;;23.92;14.87;;;;;;;4.99;77.90;99783.73;1649118;84;25839;-79
2020/12/05 06:50:44;;;;;;;23.22;14.87;;;;;;;5.02;77.97;99773.55;1650213;85;25712;-80
2020/12/05 06:53:25;;;;;;;23.38;15.48;;;;;;;5.05;77.92;99779.27;1651661;84;25793;-79
2020/12/05 06:55:54;;;;;;;24.25;16.77;;;;;;;5.07;77.94;99783.00;1646548;84;25957;-79
2020/12/05 06:58:29;;;;;;;24.30;16.70;;;;;;;5.07;77.92;99786.42;1648416;84;25809;-80
2020/12/05 07:00:57;;;;;;;26.10;16.60;;;;;;;5.05;77.81;99787.53;1655653;84;25867;-79
2020/12/05 07:03:29;;;;;;;24.27;15.85;;;;;;;5.03;77.91;99787.66;1657989;84;25876;-79
2020/12/05 07:05:57;;;;;;;21.37;15.93;;;;;;;5.02;77.97;99791.67;1652587;84;25854;-79
2020/12/05 07:08:28;;;;;;;24.18;16.12;;;;;;;5.00;78.00;99794.42;1646818;84;25849;-80
2020/12/05 07:11:09;;;;;;;23.80;16.07;;;;;;;4.98;78.04;99787.27;1646537;84;25836;-79
2020/12/05 07:13:43;;;;;;;20.62;15.00;;;;;;;5.00;78.10;99793.61;1635661;86;26399;-79
2020/12/05 07:16:17;;;;;;;25.97;15.85;;;;;;;5.00;78.11;99787.14;1648403;84;25864;-79
2020/12/05 07:18:47;;;;;;;20.55;16.00;;;;;;;5.02;78.21;99792.52;1644939;84;25950;-79
2020/12/05 07:21:14;;;;;;;;;;;;;;;5.06;78.26;99793.84;1651836;84;25906;-79
2020/12/05 07:23:41;;;;;;;22.75;14.98;;;;;;;5.12;78.38;99792.45;1653444;84;26538;-78
2020/12/05 07:26:08;;;;;;;22.48;16.15;;;;;;;5.18;78.44;99795.75;1671995;82;25845;-79
2020/12/05 07:28:35;;;;;;;28.40;19.10;;;;;;;5.24;78.46;99799.09;1710826;81;25790;-79
2020/12/05 07:31:03;;;;;;;35.80;24.15;;;;;;;5.29;78.44;99807.24;1713821;81;25759;-79
2020/12/05 07:33:34;;;;;;;44.13;30.17;;;;;;;5.34;78.45;99809.38;1718565;81;26412;-79
2020/12/05 07:36:04;;;;;;;52.60;34.95;;;;;;;5.37;78.45;99822.53;1721337;81;25671;-79
2020/12/05 07:38:34;;;;;;;93.92;56.37;;;;;;;5.39;78.41;99829.20;1716282;81;26380;-78
2020/12/05 07:41:14;;;;;;;56.25;36.75;;;;;;;5.43;78.41;99829.72;1718950;81;25867;-79
2020/12/05 07:43:42;;;;;;;64.37;43.95;;;;;;;5.45;78.39;99829.10;1722891;81;26649;-79
2020/12/05 07:46:11;;;;;;;32.58;23.05;;;;;;;5.49;78.36;99837.75;1716021;81;25936;-79
2020/12/05 07:48:38;;;;;;;59.35;37.63;;;;;;;5.54;78.26;99832.95;1714352;81;26216;-79
2020/12/05 07:51:16;;;;;;;51.77;37.25;;;;;;;5.58;78.28;99844.31;1711793;81;26672;-79
2020/12/05 07:53:45;;;;;;;43.30;31.40;;;;;;;5.63;78.22;99841.63;1713040;81;26122;-78
2020/12/05 07:56:15;;;;;;;37.78;27.90;;;;;;;5.66;78.20;99846.51;1739520;80;25770;-79
2020/12/05 07:58:53;;;;;;;37.48;28.27;;;;;;;5.68;78.06;99843.78;1713533;81;25710;-78
2020/12/05 08:01:51;;;;;;;35.58;24.07;;;;;;;5.72;78.09;99849.81;1716568;81;26416;-79
2020/12/05 08:04:28;;;;;;;35.65;23.32;;;;;;;5.75;78.05;99856.48;1717439;81;25748;-80
2020/12/05 08:07:03;;;;;;;32.40;21.97;;;;;;;5.74;77.95;99856.97;1713576;81;26373;-80
2020/12/05 08:09:37;;;;;;;32.85;23.83;;;;;;;5.74;78.02;99856.16;1714532;81;25762;-80
2020/12/05 08:12:08;;;;;;;28.57;19.90;;;;;;;5.75;78.00;99855.19;1714309;81;25936;-80
2020/12/05 08:14:35;;;;;;;31.33;19.82;;;;;;;5.78;77.98;99851.00;1717358;81;25782;-80
2020/12/05 08:17:03;;;;;;;29.87;22.02;;;;;;;5.81;77.98;99850.73;1715363;81;25988;-80
2020/12/05 08:19:30;;;;;;;29.90;20.50;;;;;;;5.87;78.02;99849.33;1696251;82;25898;-80
2020/12/05 08:22:08;;;;;;;26.37;19.05;;;;;;;5.92;77.95;99843.19;1698003;82;26542;-81
2020/12/05 08:24:32;;;;;;;31.45;22.15;;;;;;;5.98;77.94;99845.24;1698182;82;26402;-80
2020/12/05 08:26:59;;;;;;;33.58;21.55;;;;;;;6.02;77.92;99850.95;1694335;82;25763;-80
2020/12/05 08:29:26;;;;;;;30.85;21.97;;;;;;;6.05;77.79;99855.34;1680613;83;25771;-80
2020/12/05 08:31:52;;;;;;;36.35;22.35;;;;;;;6.06;77.84;99860.08;1695272;82;26349;-79
2020/12/05 08:34:30;;;;;;;30.65;19.40;;;;;;;6.09;77.92;99864.48;1701094;82;25922;-79
2020/12/05 08:36:59;;;;;;;30.92;19.50;;;;;;;6.10;77.80;99863.50;1703223;82;25830;-80
2020/12/05 08:39:30;;;;;;;30.30;20.17;;;;;;;6.12;77.73;99866.77;1677557;83;25903;-80
2020/12/05 08:41:57;;;;;;;32.75;20.23;;;;;;;6.17;77.76;99863.74;1695464;82;25863;-80
2020/12/05 08:44:28;;;;;;;30.20;20.12;;;;;;;6.24;77.74;99863.45;1724083;81;25820;-80
2020/12/05 08:47:08;;;;;;;33.45;20.62;;;;;;;6.28;77.62;99862.21;1695556;82;25745;-81
2020/12/05 08:49:44;;;;;;;32.33;20.37;;;;;;;6.28;77.52;99853.12;1696563;82;25827;-79
2020/12/05 08:52:11;;;;;;;30.08;18.95;;;;;;;6.31;77.45;99858.02;1654668;84;25745;-80
2020/12/05 08:54:50;;;;;;;30.60;20.88;;;;;;;6.31;77.39;99859.80;1652836;85;25854;-80
2020/12/05 08:57:17;;;;;;;28.92;20.27;;;;;;;6.30;77.41;99846.47;1652793;85;26056;-81
2020/12/05 08:59:44;;;;;;;29.32;18.55;;;;;;;6.30;77.42;99859.45;1650673;85;25734;-80
2020/12/05 09:02:12;;;;;;;28.52;20.57;;;;;;;6.31;77.34;99857.20;1648176;85;25882;-80
2020/12/05 09:04:39;;;;;;;30.92;18.57;;;;;;;6.33;77.29;99854.80;1653717;84;26695;-80
2020/12/05 09:07:15;;;;;;;30.72;18.92;;;;;;;6.36;77.32;99856.28;1652882;85;25956;-80
2020/12/05 09:09:47;;;;;;;43.80;28.07;;;;;;;6.40;77.24;99862.30;1652977;85;25677;-79
2020/12/05 09:12:16;;;;;;;41.83;26.90;;;;;;;6.43;77.15;99867.67;1649183;84;25794;-79
2020/12/05 09:14:47;;;;;;;33.77;23.60;;;;;;;6.43;77.16;99868.48;1657823;84;25930;-79
2020/12/05 09:17:34;;;;;;;40.55;28.23;;;;;;;6.46;77.16;99866.06;1686442;83;25527;-79
2020/12/05 09:20:13;;;;;;;33.58;23.90;;;;;;;6.48;77.15;99880.21;1696467;82;26227;-79
2020/12/05 09:22:45;;;;;;;36.58;23.27;;;;;;;6.50;77.13;99882.18;1701985;82;25573;-79
2020/12/05 09:25:12;;;;;;;37.73;24.87;;;;;;;6.51;77.12;99879.91;1697614;82;25542;-79
2020/12/05 09:27:42;;;;;;;29.50;19.05;;;;;;;6.55;77.21;99879.47;1685299;83;25893;-79
2020/12/05 09:30:12;;;;;;;36.85;23.83;;;;;;;6.60;77.12;99869.45;1658054;84;25524;-79
2020/12/05 09:32:47;;;;;;;38.37;26.47;;;;;;;6.62;77.00;99871.87;1699326;82;25692;-79
2020/12/05 09:35:17;;;;;;;40.65;26.37;;;;;;;6.69;77.09;99866.91;1699087;82;26119;-80
2020/12/05 09:37:45;;;;;;;39.50;27.02;;;;;;;6.74;76.96;99871.13;1702294;83;26041;-80
2020/12/05 09:40:15;;;;;;;36.08;25.88;;;;;;;6.76;76.84;99875.20;1697917;82;25850;-80
2020/12/05 09:42:44;;;;;;;34.35;25.02;;;;;;;6.79;76.90;99877.53;1697193;82;25843;-79
2020/12/05 09:45:12;;;;;;;37.98;27.42;;;;;;;6.84;76.95;99886.14;1696329;82;26518;-80
2020/12/05 09:47:41;;;;;;;31.12;22.93;;;;;;;6.87;76.87;99875.44;1695515;82;25826;-80
2020/12/05 09:50:09;;;;;;;31.75;21.73;;;;;;;6.91;76.82;99872.08;1688592;82;25866;-79
2020/12/05 09:52:36;;;;;;;33.15;22.02;;;;;;;6.93;76.79;99871.41;1694753;82;26454;-80
2020/12/05 09:55:03;;;;;;;33.18;22.70;;;;;;;6.98;76.87;99866.58;1688507;82;25629;-80
2020/12/05 09:57:30;;;;;;;30.75;20.52;;;;;;;7.03;76.72;99874.73;1693661;82;25712;-80
2020/12/05 09:59:56;;;;;;;33.08;23.83;;;;;;;7.09;76.74;99870.20;1692284;82;25625;-80
2020/12/05 10:02:23;;;;;;;32.40;22.42;;;;;;;7.15;76.59;99863.12;1693169;82;25656;-80
2020/12/05 10:04:49;;;;;;;37.90;26.45;;;;;;;7.24;76.68;99866.56;1689684;82;25767;-80
2020/12/05 10:07:15;;;;;;;29.72;21.82;;;;;;;7.28;76.52;99871.77;1657361;83;25851;-80
2020/12/05 10:09:41;;;;;;;30.00;20.60;;;;;;;7.34;76.55;99871.97;1691394;82;25660;-80
2020/12/05 10:12:08;;;;;;;37.88;22.80;;;;;;;7.41;76.43;99873.45;1695258;82;26544;-80
2020/12/05 10:14:34;;;;;;;28.70;20.10;;;;;;;7.46;76.28;99876.89;1695961;82;25674;-80
2020/12/05 10:17:00;;;;;;;29.23;20.92;;;;;;;7.52;76.38;99885.36;1698097;82;26697;-80
2020/12/05 10:19:27;;;;;;;27.80;20.05;;;;;;;7.58;76.21;99883.91;1696404;82;25721;-82
2020/12/05 10:21:53;;;;;;;27.32;18.82;;;;;;;7.64;76.21;99891.91;1651946;85;25744;-79
2020/12/05 10:24:21;;;;;;;31.70;19.32;;;;;;;7.72;76.29;99890.64;1649354;84;25779;-80
2020/12/05 10:26:53;;;;;;;32.60;19.95;;;;;;;7.81;76.18;99901.07;1649592;85;25599;-90
2020/12/05 10:29:24;;;;;;;27.95;19.85;;;;;;;7.90;75.99;99887.09;1658018;84;25592;-90
2020/12/05 10:31:53;;;;;;;28.60;18.35;;;;;;;8.01;76.02;99890.20;1658318;84;25720;-89
2020/12/05 10:34:23;;;;;;;30.72;19.73;;;;;;;8.13;76.08;99892.49;1657756;84;27276;-90
2020/12/05 10:36:50;;;;;;;31.80;20.40;;;;;;;8.28;76.24;99894.80;1663480;84;26334;-89
2020/12/05 10:39:18;;;;;;;29.95;19.62;;;;;;;8.37;76.20;99901.63;1657965;84;25765;-90
2020/12/05 10:41:50;;;;;;;29.32;19.98;;;;;;;8.47;75.43;99890.29;1663787;84;26003;-90
2020/12/05 10:44:17;;;;;;;27.52;19.73;;;;;;;8.53;75.33;99893.05;1662890;84;26284;-89
2020/12/05 10:46:48;;;;;;;25.52;18.23;;;;;;;8.57;74.84;99900.88;1657094;84;26729;-90
2020/12/05 10:49:16;;;;;;;27.67;20.60;;;;;;;8.61;75.40;99894.34;1663408;84;26280;-91
2020/12/05 10:51:43;;;;;;;31.35;19.90;;;;;;;8.71;74.97;99892.08;1657045;84;26344;-90
2020/12/05 10:54:10;;;;;;;28.87;18.48;;;;;;;8.79;74.72;99899.88;1659386;84;25740;-89
2020/12/05 10:56:39;;;;;;;25.95;16.70;;;;;;;8.81;74.50;99903.12;1662024;84;25723;-91
2020/12/05 10:59:09;;;;;;;25.88;16.35;;;;;;;8.86;75.20;99899.53;1650438;84;25806;-91
2020/12/05 11:01:35;;;;;;;27.80;17.40;;;;;;;9.03;74.72;99904.22;1659421;84;25772;-90
2020/12/05 11:04:02;;;;;;;27.67;17.45;;;;;;;9.10;74.61;99903.39;1671297;84;25646;-89
2020/12/05 11:06:29;;;;;;;25.25;17.42;;;;;;;9.13;74.02;99907.46;1662890;84;25747;-89
2020/12/05 11:08:55;;;;;;;24.05;17.37;;;;;;;9.29;74.40;99905.30;1662680;84;25857;-88
2020/12/05 11:11:22;;;;;;;28.62;19.05;;;;;;;9.42;74.17;99904.29;1658607;84;26472;-91
2020/12/05 11:13:49;;;;;;;28.95;19.37;;;;;;;9.47;74.11;99903.30;1656350;84;26552;-90
2020/12/05 11:16:24;;;;;;;26.90;18.07;;;;;;;9.63;74.33;99894.59;1656934;84;25738;-81
2020/12/05 11:18:53;;;;;;;26.87;17.62;;;;;;;9.66;73.43;99893.44;1653880;84;25815;-83
2020/12/05 11:21:20;;;;;;;26.40;18.20;;;;;;;9.65;73.45;99904.84;1652577;84;25753;-81
2020/12/05 11:23:46;;;;;;;28.92;21.77;;;;;;;9.69;73.05;99903.53;1656453;84;26873;-82
2020/12/05 11:26:20;;;;;;;30.25;20.82;;;;;;;9.72;72.93;99904.49;1658243;84;26685;-81
2020/12/05 11:28:47;;;;;;;28.65;20.97;;;;;;;9.76;73.30;99907.88;1640233;85;26239;-81
2020/12/05 11:31:15;;;;;;;24.52;17.70;;;;;;;9.83;72.67;99911.94;1685093;83;25835;-81
2020/12/05 11:33:41;;;;;;;27.98;19.60;;;;;;;9.89;72.68;99909.94;1663921;84;25810;-81
2020/12/05 11:36:08;;;;;;;31.48;18.42;;;;;;;9.93;72.83;99902.10;1662094;84;25773;-82